Time;durP1;ratioP1;P1;durP2;ratioP2;P2;SDS_P1;SDS_P2;PMS_P1;PMS_P2;Temp;Humidity;BMP_temperature;BMP_pressure;BME280_temperature;BME280_humidity;BME280_pressure;Samples;Min_cycle;Max_cycle;Signal;HPM_P1;HPM_P2
2022/04/13 00:12:37;;;;;;;13.77;7.80;;;;;;;4.16;50.21;100557.88;31228200;28;96707;-75
2022/04/13 00:27:38;;;;;;;12.27;7.97;;;;;;;4.02;50.91;100558.13;31226928;28;96658;-76
2022/04/13 00:42:38;;;;;;;10.65;6.47;;;;;;;3.87;51.48;100555.69;31225912;28;104549;-75
2022/04/13 00:57:40;;;;;;;12.73;7.15;;;;;;;3.71;52.14;100560.47;31223918;28;96821;-74
2022/04/13 01:12:41;;;;;;;12.57;8.77;;;;;;;3.55;52.37;100566.03;31224077;28;97207;-75
2022/04/13 01:27:41;;;;;;;14.93;8.45;;;;;;;3.44;53.39;100558.13;31222281;28;96690;-76
2022/04/13 01:42:42;;;;;;;15.77;8.93;;;;;;;3.33;53.48;100562.38;31240608;27;97267;-74
2022/04/13 01:57:43;;;;;;;17.55;9.23;;;;;;;3.10;53.92;100563.25;31241352;28;97099;-75
2022/04/13 02:12:44;;;;;;;15.02;8.63;;;;;;;2.90;54.59;100557.66;31313957;27;97533;-75
2022/04/13 02:27:45;;;;;;;17.23;10.27;;;;;;;2.75;55.34;100559.59;31364605;27;96589;-76
2022/04/13 02:42:45;;;;;;;20.13;10.48;;;;;;;2.58;55.99;100576.59;31361779;27;97475;-75
2022/04/13 02:57:45;;;;;;;17.67;9.93;;;;;;;2.46;56.58;100561.69;31245371;27;101347;-74
2022/04/13 03:12:46;;;;;;;22.60;10.23;;;;;;;2.31;56.96;100569.72;31232597;28;97101;-75
2022/04/13 03:27:46;;;;;;;22.15;10.95;;;;;;;2.20;57.15;100578.34;31230681;28;104871;-75
2022/04/13 03:42:46;;;;;;;16.63;11.77;;;;;;;2.10;58.07;100586.97;31229549;28;97215;-74
2022/04/13 03:57:47;;;;;;;22.17;13.07;;;;;;;2.01;58.37;100598.97;31227833;28;97147;-75
2022/04/13 05:29:06;;;;;;;27.63;13.48;;;;;;;4.34;58.83;100624.16;31439504;27;1331587;-77
2022/04/13 05:44:06;;;;;;;23.63;14.00;;;;;;;5.52;57.69;100622.75;31379770;27;96831;-73
2022/04/13 05:59:07;;;;;;;24.13;14.50;;;;;;;6.51;56.28;100623.25;31450284;27;97327;-74
2022/04/13 06:14:07;;;;;;;27.98;15.38;;;;;;;7.31;54.02;100631.25;31452224;27;96694;-73
2022/04/13 06:29:07;;;;;;;23.27;14.70;;;;;;;8.14;52.41;100636.91;31331925;27;97080;-73
2022/04/13 06:44:08;;;;;;;24.23;15.90;;;;;;;9.06;51.21;100637.13;31238634;27;97281;-75
2022/04/13 06:59:08;;;;;;;33.85;21.13;;;;;;;9.89;48.21;100656.50;31237301;27;97489;-74
2022/04/13 07:14:08;;;;;;;36.10;18.33;;;;;;;10.41;46.53;100664.53;31233867;28;97765;-73
2022/04/13 07:29:09;;;;;;;27.27;16.38;;;;;;;11.00;43.76;100675.31;31232418;27;107720;-74
2022/04/13 07:44:09;;;;;;;33.20;19.83;;;;;;;11.70;42.71;100670.63;31229890;27;96998;-74
2022/04/13 07:59:09;;;;;;;33.92;20.33;;;;;;;13.07;40.03;100661.84;31269457;27;97118;-73
2022/04/13 08:14:10;;;;;;;28.15;17.30;;;;;;;14.26;38.09;100658.81;31216957;27;98184;-73
2022/04/13 08:29:10;;;;;;;28.38;15.90;;;;;;;16.05;34.12;100661.94;31198637;27;96951;-77
2022/04/13 08:44:16;;;;;;;24.08;15.63;;;;;;;16.90;32.99;100648.41;31224955;27;96778;-74
2022/04/13 09:00:02;;;;;;;22.20;15.47;;;;;;;19.67;29.00;100640.53;31221158;27;97142;-74
2022/04/13 09:15:04;;;;;;;19.70;13.20;;;;;;;32.71;14.87;100635.22;31221950;28;97149;-74
2022/04/13 09:30:08;;;;;;;22.33;13.53;;;;;;;35.60;11.68;100644.84;31221315;27;97296;-71
2022/04/13 09:45:09;;;;;;;18.43;11.10;;;;;;;37.92;10.21;100633.19;31218449;27;96793;-74
2022/04/13 10:00:10;;;;;;;15.57;11.68;;;;;;;41.03;8.18;100621.00;31323905;27;111461;-73
2022/04/13 10:15:10;;;;;;;14.70;9.77;;;;;;;41.09;7.06;100616.72;31353452;27;97801;-73
2022/04/13 10:30:11;;;;;;;22.92;13.05;;;;;;;41.84;7.16;100610.13;31237841;27;97030;-73
2022/04/13 10:45:13;;;;;;;17.65;12.68;;;;;;;42.16;6.98;100607.84;31234906;27;96887;-73
2022/04/13 11:00:17;;;;;;;15.00;10.23;;;;;;;41.92;6.48;100595.88;31193255;27;97375;-72
2022/04/13 11:15:36;;;;;;;19.03;9.30;;;;;;;42.17;6.32;100587.06;31233066;27;97127;-71
2022/04/13 11:30:59;;;;;;;20.77;11.70;;;;;;;40.14;7.14;100591.88;31234072;27;97311;-75
2022/04/13 11:46:00;;;;;;;12.20;7.13;;;;;;;36.15;8.56;100604.38;31231239;27;96658;-76
2022/04/13 12:01:08;;;;;;;20.00;12.57;;;;;;;27.86;15.15;100577.44;31227865;27;97398;-73
2022/04/13 12:16:09;;;;;;;15.10;9.13;;;;;;;25.29;16.54;100551.91;31228522;28;97140;-75
2022/04/13 12:31:12;;;;;;;15.07;8.25;;;;;;;24.72;16.24;100556.81;31140030;27;97847;-74
2022/04/13 12:46:22;;;;;;;16.77;9.87;;;;;;;25.45;16.05;100539.25;31127403;27;97584;-73
2022/04/13 13:01:32;;;;;;;14.47;8.13;;;;;;;25.88;16.42;100522.91;31114355;28;98134;-73
2022/04/13 13:16:44;;;;;;;15.47;5.40;;;;;;;25.12;15.44;100502.97;31091047;28;97522;-74
2022/04/13 13:31:44;;;;;;;10.20;5.67;;;;;;;23.78;15.33;100491.38;31201604;27;97620;-73
2022/04/13 13:46:45;;;;;;;9.57;5.67;;;;;;;22.99;15.17;100474.13;31233590;28;97705;-72
2022/04/13 14:01:45;;;;;;;9.27;5.13;;;;;;;22.80;16.31;100475.41;31241299;27;97453;-72
2022/04/13 14:16:45;;;;;;;9.77;4.63;;;;;;;22.31;14.35;100454.94;31238516;28;98249;-73
2022/04/13 14:31:47;;;;;;;7.90;4.93;;;;;;;22.31;17.18;100449.50;31169809;27;97107;-72
2022/04/13 14:46:48;;;;;;;8.83;5.33;;;;;;;21.32;18.76;100453.06;31176013;28;96792;-74
2022/04/13 15:01:48;;;;;;;10.60;5.05;;;;;;;20.30;20.30;100462.94;31224415;27;97224;-74
2022/04/13 15:16:49;;;;;;;10.23;5.57;;;;;;;19.89;20.92;100449.06;31148364;28;97442;-75
2022/04/13 15:31:49;;;;;;;10.48;4.97;;;;;;;19.73;21.30;100445.03;31212880;27;97753;-73
2022/04/13 15:46:49;;;;;;;9.70;5.13;;;;;;;19.38;22.07;100440.22;31166069;28;97227;-73
2022/04/13 16:01:50;;;;;;;12.15;5.82;;;;;;;19.08;24.33;100427.41;31173790;27;97781;-75
2022/04/13 16:16:50;;;;;;;11.60;6.10;;;;;;;18.70;26.78;100424.72;31091033;28;97208;-73
2022/04/13 16:31:51;;;;;;;13.27;6.45;;;;;;;18.36;28.29;100432.22;31139454;27;96977;-71
2022/04/13 16:46:51;;;;;;;13.18;5.97;;;;;;;18.00;29.38;100433.63;31179039;28;96875;-74
2022/04/13 17:01:51;;;;;;;12.90;6.70;;;;;;;17.59;29.91;100419.41;31218143;27;96672;-73
2022/04/13 17:16:52;;;;;;;19.17;7.18;;;;;;;17.08;30.83;100429.00;31178411;28;97249;-72
2022/04/13 17:31:52;;;;;;;18.25;8.80;;;;;;;16.45;32.12;100435.53;31176853;27;97937;-75
2022/04/13 17:46:53;;;;;;;30.27;17.30;;;;;;;15.79;33.72;100436.91;31120214;28;96702;-74
2022/04/13 18:01:53;;;;;;;17.55;8.13;;;;;;;15.17;34.57;100444.75;31206007;27;96862;-73
2022/04/13 18:16:54;;;;;;;16.88;6.15;;;;;;;14.67;35.39;100441.22;31138833;28;97392;-74
2022/04/13 18:31:58;;;;;;;22.33;7.82;;;;;;;14.26;35.54;100457.84;31232757;27;96767;-72
2022/04/13 18:46:58;;;;;;;19.63;7.70;;;;;;;13.89;35.62;100463.16;31225516;28;96758;-72
2022/04/13 19:01:59;;;;;;;19.98;8.73;;;;;;;13.54;35.93;100469.06;31115976;27;96895;-72
2022/04/13 20:58:20;;;;;;;29.20;11.10;;;;;;;9.94;45.29;100465.28;31668845;27;96553;-74
2022/04/13 21:13:21;;;;;;;22.50;12.00;;;;;;;9.93;46.18;100460.94;31754053;27;96743;-74
2022/04/13 21:28:21;;;;;;;17.23;10.30;;;;;;;9.83;46.88;100459.22;31678414;27;103878;-74
2022/04/13 21:43:22;;;;;;;23.25;11.05;;;;;;;9.67;47.21;100451.16;31742451;27;96775;-74
2022/04/13 21:58:23;;;;;;;19.47;10.90;;;;;;;9.53;47.07;100451.72;31779175;27;96915;-74
2022/04/13 22:13:23;;;;;;;26.35;12.52;;;;;;;9.40;47.62;100471.59;31648520;27;97742;-74
2022/04/13 22:28:23;;;;;;;21.63;13.63;;;;;;;9.32;48.01;100476.84;31746717;27;96633;-73
2022/04/13 22:43:24;;;;;;;24.40;13.18;;;;;;;9.13;48.56;100468.09;31641404;27;96718;-74
2022/04/13 22:58:25;;;;;;;26.23;15.30;;;;;;;8.90;48.55;100466.88;31680323;27;97256;-73
2022/04/13 23:13:26;;;;;;;33.80;17.97;;;;;;;8.72;49.26;100466.88;31742203;27;96777;-73
2022/04/13 23:28:26;;;;;;;31.05;17.95;;;;;;;8.54;49.93;100456.25;31742308;27;98132;-72
2022/04/13 23:43:26;;;;;;;36.50;20.20;;;;;;;8.48;50.98;100455.03;31740418;27;96874;-73
2022/04/13 23:58:27;;;;;;;33.72;20.55;;;;;;;8.33;51.74;100437.94;31738882;27;96680;-71
